This is the latest recevied weather packets stored in our database for station/object EA1PVC-10. If no packets are shown the sender has not sent any weather packets the latest 10 day(s).
| Time | Temp. | Humidity | Pressure | Rain* | Wind** | Luminosity | Snow |
|---|---|---|---|---|---|---|---|
| 1777888841 | 13.89° C | 56% | 920.7 hPa | - | - | - | - |
| 1777887941 | 12.78° C | 65% | 920.7 hPa | - | - | - | - |
| 1777887041 | 12.78° C | 68% | 920.7 hPa | - | - | - | - |
| 1777885241 | 11.67° C | 75% | 920.7 hPa | - | - | - | - |
| 1777884340 | 10.56° C | 79% | 920.7 hPa | - | - | - | - |
| 1777882527 | 10.56° C | 85% | 920.8 hPa | - | - | - | - |
| 1777881627 | 10° C | 88% | 920.6 hPa | - | - | - | - |
| 1777880727 | 10° C | 90% | 920.6 hPa | - | - | - | - |
| 1777879827 | 10° C | 92% | 920.4 hPa | - | - | - | - |
| 1777878927 | 9.44° C | 93% | 920.5 hPa | - | - | - | - |
| 1777878027 | 9.44° C | 97% | 920.3 hPa | - | - | - | - |
| 1777877127 | -1.67° C | 96% | 904.9 hPa | - | - | - | - |
| 1777876227 | 9.44° C | 100% | 920 hPa | - | - | - | - |
| 1777875327 | 8.89° C | 100% | 919.8 hPa | - | - | - | - |
| 1777874427 | 1.11° C | 100% | 907.9 hPa | - | - | - | - |
| 1777873527 | 8.89° C | 100% | 919.5 hPa | - | - | - | - |
| 1777872630 | 2.22° C | 100% | 910.4 hPa | - | - | - | - |
| 1777861817 | 5° C | 95% | 913 hPa | - | - | - | - |
| 1777839277 | 11.11° C | 100% | 919.9 hPa | - | - | - | - |
| 1777838377 | 11.11° C | 100% | 919.8 hPa | - | - | - | - |
| 1777837477 | 11.67° C | 100% | 919.6 hPa | - | - | - | - |
| 1777836577 | 11.11° C | 100% | 919.7 hPa | - | - | - | - |
| 1777835677 | 11.67° C | 100% | 919.4 hPa | - | - | - | - |
| 1777834777 | 11.11° C | 100% | 919.4 hPa | - | - | - | - |
| 1777833876 | 11.11° C | 100% | 919.3 hPa | - | - | - | - |
* Rain since midnight (hover to see other rain measurements)
** Current wind speed in m/s (hover to see current wind gust speed)